Mixon, Texas
Current Conditions -  °F | °C
As of 5:35 PM on Saturday 22 Nov 2014 (Local Time) from KJSO Reporting Station
Moderate Rain Moderate Rain  
Wind Chill: 63°   Ceiling: 3100
Heat Index: 63°   Visibility: 3mi
Dew Point: 61°   Wind: 5mph
Humidity: 95%   Direction: 140°SE
Pressure: 29.9"   Gusts: NA
Location:  32.0774°N, 95.1103°W
Report Text: KJSO 222335Z AUTO 14004KT 3SM RA SCT021 BKN031 OVC075 17/16 A2990 RMK AO2 LTG DSNT S AND SW P0004 T01710163
Loading
Personal Weather Stations






























Interactive Weather Map New forecast layout! Learn more

10-Day Weather Forecast

Advertisements
Track Severe Weather on mobile